Time;durP1;ratioP1;P1;durP2;ratioP2;P2;SDS_P1;SDS_P2;PMS_P1;PMS_P2;Temp;Humidity;BMP_temperature;BMP_pressure;BME280_temperature;BME280_humidity;BME280_pressure;Samples;Min_cycle;Max_cycle;Signal;HPM_P1;HPM_P2
2021/12/24 00:01:51;;;;;;;23.13;14.10;;;;;;;;;;5094991;28;20211;-68
2021/12/24 00:04:18;;;;;;;23.85;16.77;;;;;;;;;;5094913;28;20226;-69
2021/12/24 00:06:46;;;;;;;28.95;19.50;;;;;;;;;;5094295;28;20690;-69
2021/12/24 00:09:21;;;;;;;27.30;17.98;;;;;;;;;;5094633;28;20201;-68
2021/12/24 00:11:48;;;;;;;26.45;16.30;;;;;;;;;;5094789;28;20188;-68
2021/12/24 00:14:16;;;;;;;24.10;14.55;;;;;;;;;;5094181;28;20220;-68
2021/12/24 00:16:48;;;;;;;43.40;23.92;;;;;;;;;;5094540;28;20231;-69
2021/12/24 00:19:21;;;;;;;31.63;19.48;;;;;;;;;;5094232;28;20185;-69
2021/12/24 00:35:33;;;;;;;36.20;18.23;;;;;;;;;;5094225;28;20178;-69
2021/12/24 00:38:03;;;;;;;36.92;19.88;;;;;;;;;;5094188;28;20616;-69
2021/12/24 00:40:32;;;;;;;31.83;18.90;;;;;;;;;;5093807;28;20183;-69
2021/12/24 00:43:00;;;;;;;33.00;22.45;;;;;;;;;;5093753;28;20323;-69
2021/12/24 00:45:28;;;;;;;34.63;21.00;;;;;;;;;;5094213;28;20231;-69
2021/12/24 00:47:56;;;;;;;30.52;17.88;;;;;;;;;;5094276;28;20220;-69
2021/12/24 00:50:25;;;;;;;40.72;19.73;;;;;;;;;;5093940;28;20287;-69
2021/12/24 00:52:57;;;;;;;32.83;19.50;;;;;;;;;;5094695;28;20191;-69
2021/12/24 00:55:24;;;;;;;29.17;19.55;;;;;;;;;;5093074;28;20662;-69
2021/12/24 00:57:53;;;;;;;34.60;21.63;;;;;;;;;;5093584;28;20570;-69
2021/12/24 01:00:22;;;;;;;34.30;19.17;;;;;;;;;;5094283;28;20262;-69
2021/12/24 01:02:50;;;;;;;21.77;17.60;;;;;;;;;;5093495;28;20295;-69
2021/12/24 01:05:18;;;;;;;33.25;17.35;;;;;;;;;;5093810;28;20662;-69
2021/12/24 01:07:46;;;;;;;27.95;19.42;;;;;;;;;;5093392;28;20260;-69
2021/12/24 01:10:14;;;;;;;25.42;16.92;;;;;;;;;;5093815;28;20649;-69
2021/12/24 01:12:41;;;;;;;29.73;19.85;;;;;;;;;;5093798;28;20245;-69
2021/12/24 01:15:11;;;;;;;23.15;15.98;;;;;;;;;;5093881;28;20231;-69
2021/12/24 01:17:43;;;;;;;23.45;15.55;;;;;;;;;;5093453;28;20236;-69
2021/12/24 01:20:19;;;;;;;22.20;15.25;;;;;;;;;;5093963;28;20194;-69
2021/12/24 01:25:36;;;;;;;20.58;12.18;;;;;;;;;;5093488;28;20183;-69
2021/12/24 01:39:08;;;;;;;20.08;13.82;;;;;;;;;;5093351;28;20237;-69
2021/12/24 01:44:26;;;;;;;30.60;19.65;;;;;;;;;;5093329;28;20248;-69
2021/12/24 01:46:55;;;;;;;21.45;16.42;;;;;;;;;;5093442;28;20636;-69
2021/12/24 01:49:23;;;;;;;32.80;20.13;;;;;;;;;;5093082;28;20203;-69
2021/12/24 01:51:50;;;;;;;22.08;15.40;;;;;;;;;;5093415;28;20285;-69
2021/12/24 01:54:17;;;;;;;27.30;17.85;;;;;;;;;;5094603;28;20286;-69
2021/12/24 01:56:45;;;;;;;31.77;19.55;;;;;;;;;;5093449;28;20294;-69
2021/12/24 01:59:12;;;;;;;22.10;17.70;;;;;;;;;;5093650;28;20192;-69
2021/12/24 02:01:40;;;;;;;36.40;22.67;;;;;;;;;;5093252;28;20203;-69
2021/12/24 02:04:11;;;;;;;29.48;20.13;;;;;;;;;;5093199;28;20726;-69
2021/12/24 02:06:39;;;;;;;33.60;23.35;;;;;;;;;;5094038;28;20185;-69
2021/12/24 02:09:06;;;;;;;34.85;20.30;;;;;;;;;;5096928;28;20203;-69
2021/12/24 02:11:37;;;;;;;28.90;19.05;;;;;;;;;;5097846;28;20718;-69
2021/12/24 02:14:05;;;;;;;19.20;14.18;;;;;;;;;;5097522;28;20287;-69
2021/12/24 02:16:53;;;;;;;32.75;21.33;;;;;;;;;;5097017;28;20227;-69
2021/12/24 02:30:30;;;;;;;31.27;17.63;;;;;;;;;;5096610;28;20176;-69
2021/12/24 02:32:58;;;;;;;29.30;21.55;;;;;;;;;;5096984;28;20282;-69
2021/12/24 02:35:25;;;;;;;24.67;16.10;;;;;;;;;;5097646;28;20278;-69
2021/12/24 02:37:54;;;;;;;27.83;16.65;;;;;;;;;;5097435;28;20283;-69
2021/12/24 02:40:21;;;;;;;16.30;12.35;;;;;;;;;;5096924;28;20283;-69
2021/12/24 02:42:52;;;;;;;34.25;21.50;;;;;;;;;;5096824;28;20278;-69
2021/12/24 02:45:20;;;;;;;31.05;20.17;;;;;;;;;;5097309;28;20207;-69
2021/12/24 02:48:10;;;;;;;27.35;15.60;;;;;;;;;;5096586;28;20310;-70
2021/12/24 02:56:11;;;;;;;27.40;15.10;;;;;;;;;;5096672;28;20176;-69
2021/12/24 02:58:40;;;;;;;29.63;19.45;;;;;;;;;;5096740;28;20655;-69
2021/12/24 03:01:07;;;;;;;25.10;18.00;;;;;;;;;;5096549;28;20204;-69
2021/12/24 03:03:34;;;;;;;24.52;16.17;;;;;;;;;;5096510;28;20283;-69
2021/12/24 03:06:02;;;;;;;26.48;17.63;;;;;;;;;;5097179;28;20287;-69
2021/12/24 03:08:30;;;;;;;30.50;20.50;;;;;;;;;;5096038;28;20316;-69
2021/12/24 03:10:58;;;;;;;29.50;18.52;;;;;;;;;;5096596;28;20196;-70
2021/12/24 03:13:26;;;;;;;27.65;18.80;;;;;;;;;;5096042;28;20197;-69
2021/12/24 03:15:55;;;;;;;31.95;17.75;;;;;;;;;;5096394;28;20315;-69
2021/12/24 03:18:26;;;;;;;26.98;17.23;;;;;;;;;;5096446;28;20197;-69
2021/12/24 03:21:01;;;;;;;32.40;18.45;;;;;;;;;;5096528;28;20184;-69
2021/12/24 03:23:37;;;;;;;34.28;21.45;;;;;;;;;;5095670;28;20276;-69
2021/12/24 03:26:05;;;;;;;36.17;21.83;;;;;;;;;;5096261;28;20637;-69
2021/12/24 03:28:32;;;;;;;25.17;19.20;;;;;;;;;;5096403;28;20227;-69
2021/12/24 03:30:59;;;;;;;33.72;20.23;;;;;;;;;;5095781;28;20641;-69
2021/12/24 03:33:27;;;;;;;28.02;20.30;;;;;;;;;;5096245;28;20202;-69
2021/12/24 03:35:54;;;;;;;32.70;19.48;;;;;;;;;;5095514;28;20231;-69
2021/12/24 03:38:21;;;;;;;29.42;18.08;;;;;;;;;;5095810;28;20242;-69
2021/12/24 03:40:50;;;;;;;34.13;20.23;;;;;;;;;;5095697;28;20192;-69
2021/12/24 03:43:17;;;;;;;37.38;21.80;;;;;;;;;;5095123;28;20621;-70
2021/12/24 03:45:55;;;;;;;23.83;15.57;;;;;;;;;;5094781;28;20288;-71
2021/12/24 03:48:27;;;;;;;25.77;17.17;;;;;;;;;;5095903;28;20289;-69
2021/12/24 03:51:01;;;;;;;30.08;20.50;;;;;;;;;;5095117;28;20552;-69
2021/12/24 03:56:15;;;;;;;32.25;19.65;;;;;;;;;;5094933;28;20184;-69
2021/12/24 03:58:42;;;;;;;31.60;19.65;;;;;;;;;;5094613;28;20236;-69
2021/12/24 04:01:10;;;;;;;33.28;22.13;;;;;;;;;;5094955;28;20195;-69
2021/12/24 04:03:37;;;;;;;36.65;22.25;;;;;;;;;;5094506;28;20288;-69
2021/12/24 04:06:04;;;;;;;36.13;20.92;;;;;;;;;;5094437;28;20231;-69
2021/12/24 04:08:32;;;;;;;26.73;16.90;;;;;;;;;;5094610;28;20633;-69
2021/12/24 04:10:59;;;;;;;34.63;20.77;;;;;;;;;;5094362;28;20482;-69
2021/12/24 04:13:27;;;;;;;32.22;18.63;;;;;;;;;;5094680;28;20297;-69
2021/12/24 04:15:55;;;;;;;43.83;23.60;;;;;;;;;;5094527;28;20584;-69
2021/12/24 04:18:35;;;;;;;36.05;20.30;;;;;;;;;;5094608;28;20208;-69
2021/12/24 04:26:33;;;;;;;33.10;17.73;;;;;;;;;;5094416;28;20253;-68
2021/12/24 04:29:02;;;;;;;26.92;17.52;;;;;;;;;;5093401;28;20310;-69
2021/12/24 04:31:39;;;;;;;27.77;16.13;;;;;;;;;;5093792;28;20280;-69
2021/12/24 04:34:06;;;;;;;30.75;18.13;;;;;;;;;;5094366;28;20426;-69
2021/12/24 04:36:49;;;;;;;19.23;12.38;;;;;;;;;;5094670;28;20564;-69
2021/12/24 04:39:40;;;;;;;30.73;18.88;;;;;;;;;;5094467;28;20183;-69
2021/12/24 05:01:11;;;;;;;35.87;21.80;;;;;;;;;;5094038;28;20276;-69
2021/12/24 05:01:46;;;;;;;25.45;15.05;;;;;;;;;;5093786;28;20557;-70
2021/12/24 05:04:14;;;;;;;44.78;19.27;;;;;;;;;;5093998;28;20187;-68
2021/12/24 05:06:50;;;;;;;42.33;22.63;;;;;;;;;;5093870;28;20287;-68
2021/12/24 05:09:23;;;;;;;44.83;23.70;;;;;;;;;;5093935;28;20208;-69
2021/12/24 05:11:50;;;;;;;37.42;24.38;;;;;;;;;;5093774;28;20182;-68
2021/12/24 05:14:17;;;;;;;44.33;23.80;;;;;;;;;;5093969;28;20549;-68
2021/12/24 05:16:48;;;;;;;54.05;26.83;;;;;;;;;;5093103;28;20257;-66
2021/12/24 05:22:01;;;;;;;63.95;31.75;;;;;;;;;;5093400;28;20228;-66
2021/12/24 05:24:30;;;;;;;56.50;28.45;;;;;;;;;;5093831;28;20236;-66
2021/12/24 05:26:59;;;;;;;66.57;28.83;;;;;;;;;;5093306;28;20280;-67
2021/12/24 05:29:27;;;;;;;42.13;21.95;;;;;;;;;;5093036;28;20306;-66
2021/12/24 05:31:56;;;;;;;63.38;29.40;;;;;;;;;;5093757;28;20227;-66
2021/12/24 05:34:23;;;;;;;68.13;31.88;;;;;;;;;;5093587;28;20236;-66
2021/12/24 05:36:51;;;;;;;67.60;31.83;;;;;;;;;;5093487;28;20227;-66
2021/12/24 05:39:20;;;;;;;47.33;27.45;;;;;;;;;;5093090;28;20284;-67
2021/12/24 05:41:48;;;;;;;66.65;32.85;;;;;;;;;;5096072;28;20231;-67
2021/12/24 05:44:17;;;;;;;69.65;33.55;;;;;;;;;;5097299;28;20287;-67
2021/12/24 05:46:46;;;;;;;57.50;30.80;;;;;;;;;;5097456;28;20208;-66
2021/12/24 05:49:16;;;;;;;63.63;31.35;;;;;;;;;;5097709;28;20221;-67
2021/12/24 05:51:44;;;;;;;62.95;32.22;;;;;;;;;;5096900;28;20239;-66
2021/12/24 05:54:11;;;;;;;56.92;30.00;;;;;;;;;;5096867;28;20283;-67
2021/12/24 05:56:39;;;;;;;59.92;31.67;;;;;;;;;;5097256;28;20235;-66
2021/12/24 05:59:07;;;;;;;58.40;33.00;;;;;;;;;;5097202;28;20236;-66
2021/12/24 06:01:34;;;;;;;55.25;30.88;;;;;;;;;;5096779;28;20287;-66
2021/12/24 06:04:01;;;;;;;57.37;31.30;;;;;;;;;;5096782;28;20736;-67
2021/12/24 06:06:30;;;;;;;60.13;27.70;;;;;;;;;;5096772;28;20529;-67
2021/12/24 06:08:57;;;;;;;61.75;30.50;;;;;;;;;;5096624;28;20482;-66
2021/12/24 06:11:24;;;;;;;49.45;27.45;;;;;;;;;;5097016;28;20225;-67
2021/12/24 06:13:55;;;;;;;59.80;32.22;;;;;;;;;;5096772;28;20205;-67
2021/12/24 06:16:22;;;;;;;42.13;23.70;;;;;;;;;;5096710;28;20229;-67
2021/12/24 06:18:49;;;;;;;57.45;30.55;;;;;;;;;;5096578;28;20240;-67
2021/12/24 06:21:17;;;;;;;47.80;27.98;;;;;;;;;;5096986;28;20300;-67
2021/12/24 06:23:47;;;;;;;59.58;31.92;;;;;;;;;;5096418;28;20239;-67
2021/12/24 06:26:14;;;;;;;53.28;29.38;;;;;;;;;;5097172;28;20213;-67
2021/12/24 06:28:42;;;;;;;39.87;26.70;;;;;;;;;;5096155;28;20221;-66
2021/12/24 06:31:09;;;;;;;57.88;33.10;;;;;;;;;;5096569;28;20522;-67
2021/12/24 06:33:37;;;;;;;37.13;24.77;;;;;;;;;;5096161;28;20196;-67
2021/12/24 06:36:04;;;;;;;61.65;33.08;;;;;;;;;;5096204;28;20664;-67
2021/12/24 06:38:31;;;;;;;52.15;31.30;;;;;;;;;;5096147;28;20204;-67
2021/12/24 06:41:00;;;;;;;48.15;28.63;;;;;;;;;;5096405;28;20233;-67
2021/12/24 06:43:28;;;;;;;59.80;30.50;;;;;;;;;;5096322;28;20282;-67
2021/12/24 06:45:57;;;;;;;43.10;26.90;;;;;;;;;;5096398;28;20446;-67
2021/12/24 06:48:24;;;;;;;49.00;29.00;;;;;;;;;;5096728;28;21034;-67
2021/12/24 06:50:51;;;;;;;50.90;30.80;;;;;;;;;;5095866;28;20447;-67
2021/12/24 06:53:18;;;;;;;43.60;26.03;;;;;;;;;;5095165;28;20853;-67
2021/12/24 06:55:46;;;;;;;45.57;26.50;;;;;;;;;;5096125;28;20526;-67
2021/12/24 06:58:14;;;;;;;31.23;21.77;;;;;;;;;;5095975;28;20523;-67
2021/12/24 07:00:42;;;;;;;53.22;28.65;;;;;;;;;;5096097;28;20471;-67
2021/12/24 07:03:09;;;;;;;40.95;26.05;;;;;;;;;;5095989;28;20193;-67
2021/12/24 07:05:36;;;;;;;41.03;26.17;;;;;;;;;;5096733;28;20281;-67
2021/12/24 07:08:03;;;;;;;37.13;24.00;;;;;;;;;;5095855;28;20280;-67
2021/12/24 07:10:31;;;;;;;47.77;30.93;;;;;;;;;;5096209;28;20442;-67
2021/12/24 07:12:58;;;;;;;40.95;25.20;;;;;;;;;;5095423;28;20527;-67
2021/12/24 07:15:27;;;;;;;45.40;25.70;;;;;;;;;;5095350;28;20284;-67
2021/12/24 07:17:54;;;;;;;33.78;20.23;;;;;;;;;;5096017;28;20323;-68
2021/12/24 07:20:21;;;;;;;46.08;28.80;;;;;;;;;;5095597;28;20193;-67
2021/12/24 07:22:48;;;;;;;40.63;27.60;;;;;;;;;;5095572;28;20395;-67
2021/12/24 07:25:16;;;;;;;56.73;28.03;;;;;;;;;;5095301;28;20527;-67
2021/12/24 07:27:43;;;;;;;34.00;24.15;;;;;;;;;;5095474;28;20529;-67
2021/12/24 07:30:12;;;;;;;41.90;25.67;;;;;;;;;;5094986;28;20259;-67
2021/12/24 07:32:41;;;;;;;33.83;19.10;;;;;;;;;;5095404;28;20195;-67
2021/12/24 07:35:09;;;;;;;43.80;26.55;;;;;;;;;;5095361;28;20348;-66
2021/12/24 07:37:36;;;;;;;44.67;28.25;;;;;;;;;;5095387;28;20288;-66
2021/12/24 07:40:04;;;;;;;48.57;24.80;;;;;;;;;;5095513;28;20201;-67
2021/12/24 07:42:31;;;;;;;42.80;26.10;;;;;;;;;;5095560;28;20467;-67
2021/12/24 07:44:59;;;;;;;53.10;24.08;;;;;;;;;;5095440;28;20497;-67
2021/12/24 07:47:33;;;;;;;37.85;21.30;;;;;;;;;;5095074;28;20225;-67
2021/12/24 07:50:04;;;;;;;43.80;23.17;;;;;;;;;;5095490;28;20205;-67
2021/12/24 07:52:31;;;;;;;42.30;23.37;;;;;;;;;;5095144;28;20541;-67
2021/12/24 07:54:59;;;;;;;27.47;16.70;;;;;;;;;;5094952;28;20500;-68
2021/12/24 07:57:26;;;;;;;32.35;18.60;;;;;;;;;;5094576;28;20527;-67
2021/12/24 07:59:53;;;;;;;33.83;17.60;;;;;;;;;;5094575;28;20273;-67
2021/12/24 08:02:24;;;;;;;32.65;17.33;;;;;;;;;;5094481;28;20283;-68
2021/12/24 08:04:53;;;;;;;34.67;20.40;;;;;;;;;;5094797;28;20178;-68
2021/12/24 08:07:21;;;;;;;28.58;19.58;;;;;;;;;;5094738;28;20197;-67
2021/12/24 08:09:49;;;;;;;26.33;17.40;;;;;;;;;;5095044;28;20209;-69
2021/12/24 08:12:16;;;;;;;31.97;16.10;;;;;;;;;;5094337;28;20530;-67
2021/12/24 08:14:43;;;;;;;27.93;18.70;;;;;;;;;;5094180;28;20930;-67
2021/12/24 08:17:11;;;;;;;31.47;21.60;;;;;;;;;;5094544;28;20471;-68
2021/12/24 08:19:38;;;;;;;34.53;19.63;;;;;;;;;;5094475;28;20538;-67
2021/12/24 08:22:06;;;;;;;26.52;16.13;;;;;;;;;;5094321;28;20240;-67
2021/12/24 08:24:35;;;;;;;27.20;16.17;;;;;;;;;;5095122;28;20284;-67
2021/12/24 08:27:02;;;;;;;30.85;18.27;;;;;;;;;;5094328;28;20656;-66
2021/12/24 08:29:29;;;;;;;24.15;17.50;;;;;;;;;;5094262;28;20311;-67
2021/12/24 08:31:57;;;;;;;31.23;18.25;;;;;;;;;;5093957;28;20200;-67
2021/12/24 08:34:24;;;;;;;22.37;13.67;;;;;;;;;;5094027;28;20686;-67
2021/12/24 08:36:52;;;;;;;23.88;15.88;;;;;;;;;;5093977;28;20483;-68
2021/12/24 08:39:21;;;;;;;31.50;17.25;;;;;;;;;;5093769;28;20561;-67
2021/12/24 08:41:54;;;;;;;27.55;18.67;;;;;;;;;;5094147;28;20201;-67
2021/12/24 08:44:21;;;;;;;36.63;16.85;;;;;;;;;;5094506;28;20201;-67
2021/12/24 08:46:49;;;;;;;37.47;17.15;;;;;;;;;;5093765;28;20197;-67
2021/12/24 08:49:16;;;;;;;19.70;14.35;;;;;;;;;;5093633;28;20304;-67
2021/12/24 08:51:43;;;;;;;21.77;15.40;;;;;;;;;;5093899;28;20197;-67
2021/12/24 08:54:10;;;;;;;24.90;17.10;;;;;;;;;;5093634;28;20287;-67
2021/12/24 08:56:38;;;;;;;35.67;17.00;;;;;;;;;;5094308;28;20280;-67
2021/12/24 08:59:06;;;;;;;23.35;12.73;;;;;;;;;;5094043;28;20288;-68
2021/12/24 09:01:34;;;;;;;20.23;14.23;;;;;;;;;;5093955;28;20288;-68
2021/12/24 09:04:01;;;;;;;20.15;14.35;;;;;;;;;;5094051;28;20615;-68
2021/12/24 09:06:28;;;;;;;19.83;14.55;;;;;;;;;;5093481;28;20243;-67
2021/12/24 09:08:55;;;;;;;19.85;14.85;;;;;;;;;;5093547;28;20302;-67
2021/12/24 09:11:23;;;;;;;32.42;16.35;;;;;;;;;;5093662;28;20283;-67
2021/12/24 09:13:50;;;;;;;24.60;17.85;;;;;;;;;;5094065;28;20241;-67
2021/12/24 09:16:19;;;;;;;38.67;20.50;;;;;;;;;;5092893;28;20296;-67
2021/12/24 09:18:49;;;;;;;19.17;14.35;;;;;;;;;;5093731;28;20462;-67
2021/12/24 09:21:19;;;;;;;28.13;18.38;;;;;;;;;;5093234;28;20686;-68
2021/12/24 09:23:49;;;;;;;28.80;17.13;;;;;;;;;;5093813;28;20245;-67
2021/12/24 09:26:23;;;;;;;18.65;15.32;;;;;;;;;;5093952;28;20189;-67
2021/12/24 09:28:50;;;;;;;21.73;15.43;;;;;;;;;;5093847;28;20186;-66
2021/12/24 09:31:19;;;;;;;20.10;14.68;;;;;;;;;;5093503;28;20238;-67
2021/12/24 09:33:46;;;;;;;23.35;14.20;;;;;;;;;;5093444;28;20208;-69
2021/12/24 09:36:13;;;;;;;31.20;19.35;;;;;;;;;;5093459;28;20646;-67
2021/12/24 09:38:40;;;;;;;24.08;17.90;;;;;;;;;;5093117;28;20716;-66
2021/12/24 09:41:08;;;;;;;26.13;14.63;;;;;;;;;;5092908;28;20287;-67
2021/12/24 09:43:35;;;;;;;32.85;16.38;;;;;;;;;;5093049;28;20250;-66
2021/12/24 09:46:02;;;;;;;35.30;16.70;;;;;;;;;;5093917;28;20621;-65
2021/12/24 09:48:31;;;;;;;22.17;16.00;;;;;;;;;;5093560;28;20288;-65
2021/12/24 09:50:58;;;;;;;22.90;16.25;;;;;;;;;;5092652;28;20652;-65
2021/12/24 09:53:26;;;;;;;20.23;13.68;;;;;;;;;;5093190;28;20185;-65
2021/12/24 09:55:53;;;;;;;26.83;16.88;;;;;;;;;;5092964;28;20192;-65
2021/12/24 09:58:20;;;;;;;16.48;11.77;;;;;;;;;;5092883;28;20203;-65
2021/12/24 10:00:47;;;;;;;30.38;16.02;;;;;;;;;;5093240;28;20626;-65
2021/12/24 10:03:29;;;;;;;34.63;18.15;;;;;;;;;;5093162;28;20202;-65
2021/12/24 10:05:58;;;;;;;30.02;15.88;;;;;;;;;;5092930;28;20651;-66
2021/12/24 10:08:26;;;;;;;33.65;17.95;;;;;;;;;;5092880;28;20725;-65
2021/12/24 10:10:54;;;;;;;27.15;16.08;;;;;;;;;;5093086;28;20304;-65
2021/12/24 10:13:25;;;;;;;21.52;12.27;;;;;;;;;;5093552;28;20282;-65
2021/12/24 10:15:53;;;;;;;22.58;15.68;;;;;;;;;;5093014;28;20283;-65
2021/12/24 10:18:40;;;;;;;26.90;16.42;;;;;;;;;;5093110;28;20239;-66
2021/12/24 10:21:11;;;;;;;28.98;14.98;;;;;;;;;;5092677;28;20246;-66
2021/12/24 10:23:39;;;;;;;27.55;15.20;;;;;;;;;;5092664;28;20181;-65
2021/12/24 10:26:12;;;;;;;30.25;15.80;;;;;;;;;;5092942;28;20284;-65
2021/12/24 10:28:39;;;;;;;23.77;13.55;;;;;;;;;;5095308;28;20202;-65
2021/12/24 10:31:06;;;;;;;22.75;15.52;;;;;;;;;;5096287;28;20315;-65
2021/12/24 10:33:33;;;;;;;25.95;15.05;;;;;;;;;;5096843;28;20555;-65
2021/12/24 10:36:01;;;;;;;22.35;14.02;;;;;;;;;;5096316;28;20197;-65
2021/12/24 10:38:30;;;;;;;19.33;10.27;;;;;;;;;;5096892;28;20300;-66
2021/12/24 10:41:01;;;;;;;25.40;13.20;;;;;;;;;;5096896;28;20204;-66
2021/12/24 10:43:29;;;;;;;20.02;12.10;;;;;;;;;;5097142;28;20620;-66
2021/12/24 10:46:12;;;;;;;25.58;13.52;;;;;;;;;;5096281;28;20731;-65
2021/12/24 10:48:46;;;;;;;20.38;13.23;;;;;;;;;;5095712;28;20282;-64
2021/12/24 10:51:21;;;;;;;20.55;13.55;;;;;;;;;;5096220;28;20240;-65
2021/12/24 10:54:05;;;;;;;28.92;17.30;;;;;;;;;;5096746;28;20208;-65
2021/12/24 10:56:32;;;;;;;35.17;18.85;;;;;;;;;;5096905;28;20185;-65
2021/12/24 10:59:00;;;;;;;27.07;15.63;;;;;;;;;;5096121;28;20236;-65
2021/12/24 11:01:27;;;;;;;32.05;18.45;;;;;;;;;;5095755;28;20597;-65
2021/12/24 11:03:54;;;;;;;30.83;17.65;;;;;;;;;;5095724;28;20190;-65
2021/12/24 11:06:22;;;;;;;28.10;16.15;;;;;;;;;;5095553;28;20197;-65
2021/12/24 11:08:55;;;;;;;32.40;12.63;;;;;;;;;;5095754;28;20196;-65
2021/12/24 11:11:24;;;;;;;24.13;15.50;;;;;;;;;;5096045;28;20209;-65
2021/12/24 11:13:52;;;;;;;24.40;13.45;;;;;;;;;;5095681;28;20303;-65
2021/12/24 11:16:21;;;;;;;29.00;15.68;;;;;;;;;;5095995;28;20239;-65
2021/12/24 11:18:56;;;;;;;29.48;16.65;;;;;;;;;;5095855;28;20268;-65
2021/12/24 11:21:24;;;;;;;14.23;12.00;;;;;;;;;;5096066;28;20204;-65
2021/12/24 11:23:51;;;;;;;31.98;17.80;;;;;;;;;;5095325;28;20226;-66
2021/12/24 11:26:20;;;;;;;19.90;11.93;;;;;;;;;;5095605;28;20626;-65
2021/12/24 11:28:49;;;;;;;38.55;15.85;;;;;;;;;;5095498;28;20193;-65
2021/12/24 11:31:18;;;;;;;37.85;19.67;;;;;;;;;;5095112;28;20231;-65
2021/12/24 11:33:46;;;;;;;26.77;17.10;;;;;;;;;;5095400;28;20287;-64
2021/12/24 11:36:14;;;;;;;32.75;17.90;;;;;;;;;;5095248;28;20663;-64
2021/12/24 11:38:43;;;;;;;35.42;15.95;;;;;;;;;;5094590;28;20286;-64
2021/12/24 11:41:13;;;;;;;33.92;16.35;;;;;;;;;;5095278;28;20200;-64
2021/12/24 11:43:41;;;;;;;27.15;14.85;;;;;;;;;;5095018;28;20197;-65
2021/12/24 11:46:11;;;;;;;19.63;12.25;;;;;;;;;;5095008;28;20278;-65
2021/12/24 11:48:38;;;;;;;28.30;16.20;;;;;;;;;;5096012;28;20232;-65
2021/12/24 11:51:09;;;;;;;26.23;15.98;;;;;;;;;;5095459;28;20298;-65
2021/12/24 11:53:36;;;;;;;28.73;16.45;;;;;;;;;;5094684;28;20297;-65
2021/12/24 11:56:06;;;;;;;25.48;14.13;;;;;;;;;;5094974;28;20228;-64
2021/12/24 11:58:33;;;;;;;21.60;13.93;;;;;;;;;;5094644;28;20196;-65
2021/12/24 12:01:07;;;;;;;21.95;13.90;;;;;;;;;;5094610;28;20293;-65
2021/12/24 12:03:37;;;;;;;29.77;16.85;;;;;;;;;;5094977;28;20200;-65
2021/12/24 12:06:06;;;;;;;24.52;13.82;;;;;;;;;;5094491;28;20276;-65
2021/12/24 12:08:38;;;;;;;24.23;12.95;;;;;;;;;;5094393;28;20193;-65
2021/12/24 12:11:07;;;;;;;23.75;15.35;;;;;;;;;;5094821;28;20743;-65
2021/12/24 12:13:38;;;;;;;21.83;12.20;;;;;;;;;;5094344;28;20212;-65
2021/12/24 12:16:07;;;;;;;23.17;12.27;;;;;;;;;;5094388;28;20310;-65
2021/12/24 12:18:44;;;;;;;22.10;14.18;;;;;;;;;;5095327;28;20260;-65
2021/12/24 12:21:12;;;;;;;18.05;11.82;;;;;;;;;;5094199;28;20188;-65
2021/12/24 12:26:43;;;;;;;20.38;11.45;;;;;;;;;;5094477;28;20176;-65
2021/12/24 12:29:17;;;;;;;20.40;11.20;;;;;;;;;;5094106;28;20633;-65
2021/12/24 12:31:44;;;;;;;17.67;11.43;;;;;;;;;;5093943;28;20505;-65
2021/12/24 12:34:26;;;;;;;18.80;10.93;;;;;;;;;;5094795;28;20200;-65
2021/12/24 12:36:55;;;;;;;27.88;10.20;;;;;;;;;;5094652;28;20227;-65
2021/12/24 12:39:27;;;;;;;20.10;9.98;;;;;;;;;;5094499;28;20196;-65
2021/12/24 12:41:54;;;;;;;20.17;10.95;;;;;;;;;;5093860;28;20610;-65
2021/12/24 12:44:21;;;;;;;21.52;12.18;;;;;;;;;;5093871;28;20553;-65
2021/12/24 12:46:51;;;;;;;17.25;11.20;;;;;;;;;;5093747;28;20239;-65
2021/12/24 12:49:31;;;;;;;27.80;10.00;;;;;;;;;;5094399;28;20242;-65
2021/12/24 12:52:00;;;;;;;23.00;12.52;;;;;;;;;;5093450;28;20208;-67
2021/12/24 12:54:32;;;;;;;12.63;10.05;;;;;;;;;;5093722;28;20308;-66
2021/12/24 12:57:10;;;;;;;19.43;12.80;;;;;;;;;;5093210;28;20228;-66
2021/12/24 12:59:37;;;;;;;18.77;9.18;;;;;;;;;;5093367;28;20481;-66
2021/12/24 13:02:05;;;;;;;26.55;12.55;;;;;;;;;;5093819;28;20243;-67
2021/12/24 13:04:32;;;;;;;22.30;12.35;;;;;;;;;;5093452;28;20238;-66
2021/12/24 13:07:01;;;;;;;22.70;12.80;;;;;;;;;;5093979;28;20204;-66
2021/12/24 13:09:33;;;;;;;20.17;12.20;;;;;;;;;;5093375;28;20495;-66
2021/12/24 13:12:01;;;;;;;24.33;10.83;;;;;;;;;;5093335;28;20208;-66
2021/12/24 13:14:30;;;;;;;19.05;11.07;;;;;;;;;;5093576;28;20443;-66
2021/12/24 13:17:16;;;;;;;11.07;7.70;;;;;;;;;;5093530;28;20227;-66
2021/12/24 13:20:11;;;;;;;19.30;10.73;;;;;;;;;;5093389;28;20181;-66
2021/12/24 13:22:39;;;;;;;20.10;13.70;;;;;;;;;;5093264;28;20268;-66
2021/12/24 13:25:10;;;;;;;16.85;11.73;;;;;;;;;;5093104;28;20192;-68
2021/12/24 13:27:45;;;;;;;21.00;14.00;;;;;;;;;;5094415;28;20250;-67
2021/12/24 13:30:14;;;;;;;19.33;11.18;;;;;;;;;;5093944;28;21027;-66
2021/12/24 13:32:42;;;;;;;17.23;11.80;;;;;;;;;;5093135;28;20291;-66
2021/12/24 13:35:10;;;;;;;28.52;14.55;;;;;;;;;;5093400;28;20236;-66
2021/12/24 13:37:37;;;;;;;21.25;13.98;;;;;;;;;;5093408;28;20572;-66
2021/12/24 13:40:10;;;;;;;20.17;11.90;;;;;;;;;;5093735;28;20272;-66
2021/12/24 13:42:45;;;;;;;32.75;13.70;;;;;;;;;;5093618;28;20612;-66
2021/12/24 13:45:12;;;;;;;19.95;12.13;;;;;;;;;;5093810;28;20225;-66
2021/12/24 13:54:30;;;;;;;26.52;14.00;;;;;;;;;;5092692;28;20225;-67
2021/12/24 13:56:01;;;;;;;22.13;12.13;;;;;;;;;;5092849;28;20223;-66
2021/12/24 13:58:28;;;;;;;26.40;13.15;;;;;;;;;;5092887;28;20233;-67
2021/12/24 14:00:56;;;;;;;25.45;14.75;;;;;;;;;;5093246;28;20202;-66
2021/12/24 14:03:24;;;;;;;22.52;10.95;;;;;;;;;;5096744;28;20239;-67
2021/12/24 14:05:53;;;;;;;27.90;15.40;;;;;;;;;;5097223;28;20200;-67
2021/12/24 14:08:22;;;;;;;18.80;12.68;;;;;;;;;;5096694;28;20286;-67
2021/12/24 14:10:50;;;;;;;17.77;13.07;;;;;;;;;;5097270;28;20255;-66
2021/12/24 14:13:25;;;;;;;24.48;15.35;;;;;;;;;;5096595;28;20250;-66
2021/12/24 14:16:03;;;;;;;16.35;9.48;;;;;;;;;;5096775;28;20275;-66
2021/12/24 14:18:45;;;;;;;21.27;12.43;;;;;;;;;;5096989;28;20547;-66
2021/12/24 14:21:47;;;;;;;20.40;12.38;;;;;;;;;;5096563;28;20224;-67
2021/12/24 14:24:16;;;;;;;18.00;10.32;;;;;;;;;;5096829;28;20188;-66
2021/12/24 14:26:45;;;;;;;16.90;12.07;;;;;;;;;;5096759;28;20224;-66
2021/12/24 14:29:14;;;;;;;19.70;12.02;;;;;;;;;;5096431;28;20200;-66
2021/12/24 14:31:51;;;;;;;19.58;12.30;;;;;;;;;;5096582;28;20582;-66
2021/12/24 14:34:32;;;;;;;21.60;10.93;;;;;;;;;;5096611;28;20350;-66
2021/12/24 14:37:00;;;;;;;22.45;11.52;;;;;;;;;;5096255;28;20439;-66
2021/12/24 14:39:34;;;;;;;20.83;11.25;;;;;;;;;;5096485;28;20244;-66
2021/12/24 14:42:18;;;;;;;20.52;11.88;;;;;;;;;;5096757;28;20225;-67
2021/12/24 14:44:47;;;;;;;16.10;10.15;;;;;;;;;;5096520;28;20197;-67
2021/12/24 14:47:19;;;;;;;15.23;10.75;;;;;;;;;;5096247;28;20225;-67
2021/12/24 14:49:46;;;;;;;17.23;11.45;;;;;;;;;;5096412;28;20220;-67
2021/12/24 14:52:24;;;;;;;21.13;12.57;;;;;;;;;;5096553;28;20311;-67
2021/12/24 14:55:07;;;;;;;16.77;11.63;;;;;;;;;;5096436;28;20503;-67
2021/12/24 14:57:35;;;;;;;17.33;9.40;;;;;;;;;;5096157;28;20544;-67
2021/12/24 15:00:08;;;;;;;15.90;10.83;;;;;;;;;;5095725;28;20215;-67
2021/12/24 15:02:40;;;;;;;17.17;11.87;;;;;;;;;;5096084;28;20522;-66
2021/12/24 15:05:07;;;;;;;18.05;9.85;;;;;;;;;;5095751;28;20436;-67
2021/12/24 15:07:35;;;;;;;14.88;11.30;;;;;;;;;;5095575;28;20204;-66
2021/12/24 15:10:09;;;;;;;17.53;11.10;;;;;;;;;;5096559;28;20287;-66
2021/12/24 15:12:41;;;;;;;12.50;9.52;;;;;;;;;;5095422;28;20486;-66
2021/12/24 15:15:10;;;;;;;14.85;9.95;;;;;;;;;;5095347;28;20651;-66
2021/12/24 15:17:38;;;;;;;15.52;8.93;;;;;;;;;;5095791;28;20321;-65
2021/12/24 15:20:06;;;;;;;10.15;7.80;;;;;;;;;;5095683;28;20212;-66
2021/12/24 15:22:33;;;;;;;16.13;11.07;;;;;;;;;;5095497;28;20244;-66
2021/12/24 15:25:01;;;;;;;14.80;9.48;;;;;;;;;;5095162;28;20723;-66
2021/12/24 15:27:32;;;;;;;13.10;9.45;;;;;;;;;;5095170;28;20239;-67
2021/12/24 15:30:00;;;;;;;10.83;8.00;;;;;;;;;;5095256;28;20228;-66
2021/12/24 15:32:29;;;;;;;3.20;3.00;;;;;;;;;;5095343;28;20578;-66
2021/12/24 15:34:56;;;;;;;4.00;3.60;;;;;;;;;;5095442;28;20626;-66
2021/12/24 15:37:23;;;;;;;2.90;2.70;;;;;;;;;;5095088;28;20286;-66
2021/12/24 15:39:51;;;;;;;3.58;3.28;;;;;;;;;;5095358;28;20243;-66
2021/12/24 15:42:19;;;;;;;3.45;3.17;;;;;;;;;;5094959;28;20242;-66
2021/12/24 15:44:47;;;;;;;4.18;3.25;;;;;;;;;;5094928;28;20226;-66
2021/12/24 15:47:14;;;;;;;3.10;2.90;;;;;;;;;;5095128;28;20192;-66
2021/12/24 15:49:43;;;;;;;3.10;2.90;;;;;;;;;;5094812;28;20291;-65
2021/12/24 15:52:10;;;;;;;3.30;3.00;;;;;;;;;;5095042;28;20307;-66
2021/12/24 15:54:38;;;;;;;2.33;2.22;;;;;;;;;;5095009;28;20290;-65
2021/12/24 15:57:05;;;;;;;5.78;2.60;;;;;;;;;;5094868;28;20228;-65